Time;durP1;ratioP1;P1;durP2;ratioP2;P2;SDS_P1;SDS_P2;PMS_P1;PMS_P2;Temp;Humidity;BMP_temperature;BMP_pressure;BME280_temperature;BME280_humidity;BME280_pressure;Samples;Min_cycle;Max_cycle;Signal;HPM_P1;HPM_P2
2022/11/30 00:00:05;;;;;;;12.23;11.30;;;11.90;84.70;;;;;;4957444;29;20460;-84
2022/11/30 00:02:30;;;;;;;11.77;10.88;;;11.90;84.70;;;;;;4957297;29;20064;-84
2022/11/30 00:04:56;;;;;;;12.23;11.23;;;11.90;84.70;;;;;;4939351;29;20042;-84
2022/11/30 00:07:21;;;;;;;13.23;12.25;;;11.90;84.70;;;;;;4939901;29;20042;-83
2022/11/30 00:09:47;;;;;;;12.65;11.65;;;11.90;84.70;;;;;;4939306;29;20066;-85
2022/11/30 00:12:12;;;;;;;12.60;11.60;;;11.80;84.60;;;;;;4939393;29;20107;-84
2022/11/30 00:14:38;;;;;;;12.95;11.95;;;11.90;84.70;;;;;;4939458;29;20031;-84
2022/11/30 00:17:03;;;;;;;12.68;11.68;;;11.90;84.70;;;;;;4939230;29;20034;-85
2022/11/30 00:19:29;;;;;;;13.07;12.07;;;11.90;84.70;;;;;;4938874;29;20019;-84
2022/11/30 00:21:54;;;;;;;11.88;10.98;;;11.90;84.70;;;;;;4938525;29;20023;-84
2022/11/30 00:24:20;;;;;;;12.38;11.38;;;11.90;84.70;;;;;;4938725;29;20578;-84
2022/11/30 00:26:45;;;;;;;12.70;11.73;;;11.90;84.60;;;;;;4938740;29;20038;-84
2022/11/30 00:29:11;;;;;;;13.27;12.30;;;11.90;84.60;;;;;;4938601;29;20038;-83
2022/11/30 00:31:37;;;;;;;12.90;11.90;;;11.90;84.50;;;;;;4938489;29;20062;-83
2022/11/30 00:34:03;;;;;;;12.70;11.75;;;11.90;84.40;;;;;;4938429;29;20055;-85
2022/11/30 00:36:28;;;;;;;12.32;11.40;;;11.90;84.20;;;;;;4938418;29;20031;-83
2022/11/30 00:38:54;;;;;;;12.70;11.80;;;12.00;84.20;;;;;;4938674;29;20034;-83
2022/11/30 00:41:20;;;;;;;13.05;12.05;;;12.00;84.10;;;;;;4938169;28;20064;-84
2022/11/30 00:43:46;;;;;;;12.48;11.52;;;12.00;84.00;;;;;;4938306;29;20574;-84
2022/11/30 00:46:12;;;;;;;12.20;11.30;;;12.00;84.00;;;;;;4938307;29;20027;-84
2022/11/30 00:48:39;;;;;;;13.13;12.13;;;12.00;84.00;;;;;;4938220;29;20082;-85
2022/11/30 00:51:05;;;;;;;12.40;11.50;;;12.00;84.10;;;;;;4937944;29;20027;-84
2022/11/30 00:53:31;;;;;;;12.40;11.50;;;12.00;84.20;;;;;;4938182;29;20031;-85
2022/11/30 00:55:56;;;;;;;12.68;11.75;;;12.00;84.20;;;;;;4938092;29;20019;-84
2022/11/30 00:58:22;;;;;;;11.85;10.95;;;11.90;84.30;;;;;;4937646;29;20381;-84
2022/11/30 01:00:47;;;;;;;13.05;12.05;;;11.90;84.30;;;;;;4953446;29;20101;-84
2022/11/30 01:03:13;;;;;;;12.57;11.68;;;11.90;84.40;;;;;;4938047;29;20035;-84
2022/11/30 01:05:39;;;;;;;13.18;12.18;;;11.90;84.40;;;;;;4937923;29;20031;-84
2022/11/30 01:08:07;;;;;;;12.43;11.52;;;11.90;84.50;;;;;;4937570;29;20050;-86
2022/11/30 01:10:34;;;;;;;13.18;12.15;;;11.90;84.60;;;;;;4953387;29;20030;-83
2022/11/30 01:13:01;;;;;;;13.27;12.27;;;11.90;84.60;;;;;;4937778;29;20023;-83
2022/11/30 01:15:26;;;;;;;13.50;12.50;;;11.90;84.70;;;;;;4935057;29;20130;-84
2022/11/30 01:17:52;;;;;;;12.80;11.82;;;11.90;84.60;;;;;;4944989;29;20062;-86
2022/11/30 01:20:18;;;;;;;12.57;11.57;;;11.90;84.60;;;;;;4961113;29;20035;-87
2022/11/30 01:22:43;;;;;;;13.18;12.23;;;11.90;84.70;;;;;;4944633;29;20492;-86
2022/11/30 01:25:09;;;;;;;12.73;11.73;;;11.90;84.70;;;;;;4923898;29;20028;-86
2022/11/30 01:27:35;;;;;;;12.95;11.95;;;11.90;84.70;;;;;;4924741;29;20031;-86
2022/11/30 01:30:00;;;;;;;12.52;11.52;;;11.90;84.70;;;;;;4932275;29;20030;-86
2022/11/30 01:32:26;;;;;;;13.35;12.35;;;11.90;84.70;;;;;;4958639;28;20039;-87
2022/11/30 01:34:52;;;;;;;12.93;11.82;;;11.90;84.80;;;;;;4942889;29;20093;-86
2022/11/30 01:37:17;;;;;;;11.75;10.75;;;11.90;84.80;;;;;;4942264;29;20030;-86
2022/11/30 01:39:43;;;;;;;12.18;11.27;;;11.80;84.70;;;;;;4942026;29;20024;-84
2022/11/30 01:42:18;;;;;;;12.75;11.75;;;11.90;84.80;;;;;;4941327;29;20083;-86
2022/11/30 01:44:58;;;;;;;13.02;12.02;;;11.90;84.80;;;;;;4941729;29;20031;-87
2022/11/30 01:47:44;;;;;;;11.55;10.65;;;11.90;84.80;;;;;;4941904;29;20053;-86
2022/11/30 01:50:16;;;;;;;11.98;11.07;;;11.90;84.80;;;;;;4940543;29;20027;-84
2022/11/30 01:52:49;;;;;;;11.73;10.82;;;11.80;84.80;;;;;;4956686;29;20376;-84
2022/11/30 01:55:37;;;;;;;11.82;10.93;;;11.90;84.80;;;;;;4961247;29;20372;-84
2022/11/30 01:58:16;;;;;;;11.63;10.73;;;11.90;84.80;;;;;;4944655;29;20095;-86
2022/11/30 02:00:45;;;;;;;12.32;11.32;;;11.80;84.70;;;;;;4961695;29;20083;-85
2022/11/30 02:03:21;;;;;;;12.65;11.55;;;11.90;84.80;;;;;;4959576;28;20134;-83
2022/11/30 02:05:48;;;;;;;12.60;11.70;;;11.90;84.70;;;;;;4943359;29;20024;-85
2022/11/30 02:08:13;;;;;;;13.45;12.45;;;11.90;84.70;;;;;;4955617;29;20071;-83
2022/11/30 02:10:43;;;;;;;12.32;11.43;;;11.90;84.80;;;;;;4941484;29;20404;-84
2022/11/30 02:13:19;;;;;;;12.75;11.43;;;11.90;84.80;;;;;;4923955;29;20031;-86
2022/11/30 02:16:09;;;;;;;12.05;11.13;;;11.90;84.70;;;;;;4927288;29;20135;-84
2022/11/30 02:18:54;;;;;;;11.47;10.47;;;11.90;84.70;;;;;;4942580;29;20119;-84
2022/11/30 02:21:45;;;;;;;11.93;10.93;;;11.90;84.70;;;;;;4953664;29;20279;-84
2022/11/30 02:24:28;;;;;;;11.38;10.52;;;11.80;84.70;;;;;;4922518;29;20039;-83
2022/11/30 02:26:57;;;;;;;12.00;11.10;;;11.90;84.80;;;;;;4940762;29;20038;-84
2022/11/30 02:29:33;;;;;;;12.13;11.23;;;11.90;84.70;;;;;;4923393;29;20031;-85
2022/11/30 02:32:25;;;;;;;12.48;11.32;;;11.90;84.60;;;;;;4953924;29;20023;-83
2022/11/30 02:34:53;;;;;;;11.60;10.70;;;11.90;84.60;;;;;;4941654;29;20027;-84
2022/11/30 02:37:20;;;;;;;11.73;10.82;;;11.90;84.40;;;;;;4941518;29;20029;-84
2022/11/30 02:39:45;;;;;;;11.15;10.27;;;12.00;84.30;;;;;;4941334;29;20399;-84
2022/11/30 02:42:12;;;;;;;11.30;10.40;;;12.00;84.20;;;;;;4941390;29;20080;-83
2022/11/30 02:44:45;;;;;;;12.05;11.15;;;11.90;84.10;;;;;;4941507;29;20069;-86
2022/11/30 02:47:35;;;;;;;12.48;11.57;;;12.00;84.10;;;;;;4958517;29;20046;-86
2022/11/30 02:50:03;;;;;;;11.55;10.65;;;12.00;84.00;;;;;;4958413;29;20043;-84
2022/11/30 02:52:31;;;;;;;11.80;10.90;;;12.00;84.00;;;;;;4957993;28;20114;-84
2022/11/30 02:55:02;;;;;;;11.60;10.70;;;12.00;84.10;;;;;;4957970;29;20070;-87
2022/11/30 02:57:28;;;;;;;11.32;10.45;;;12.00;84.20;;;;;;4956606;29;20024;-83
2022/11/30 02:59:55;;;;;;;12.13;11.18;;;11.90;84.30;;;;;;4956011;29;20078;-84
2022/11/30 03:02:20;;;;;;;11.82;10.93;;;12.00;84.40;;;;;;4957523;28;20102;-84
2022/11/30 03:04:46;;;;;;;12.02;11.13;;;11.90;84.50;;;;;;4955976;28;20121;-84
2022/11/30 03:07:11;;;;;;;11.98;11.07;;;11.90;84.50;;;;;;4957187;29;20027;-84
2022/11/30 03:09:37;;;;;;;12.68;11.68;;;11.90;84.50;;;;;;4955740;29;20028;-84
2022/11/30 03:12:02;;;;;;;12.55;11.48;;;11.90;84.50;;;;;;4954033;29;20030;-85
2022/11/30 03:14:28;;;;;;;12.60;11.60;;;11.90;84.60;;;;;;4920835;29;20055;-84
2022/11/30 03:16:53;;;;;;;12.15;11.15;;;11.90;84.70;;;;;;4920954;29;20508;-84
2022/11/30 03:19:19;;;;;;;12.32;11.32;;;11.90;84.70;;;;;;4937838;29;20095;-85
2022/11/30 03:21:44;;;;;;;11.77;10.82;;;11.90;84.70;;;;;;4930398;29;20027;-84
2022/11/30 03:24:10;;;;;;;12.00;11.00;;;11.90;84.80;;;;;;5038792;23;20133;-76
2022/11/30 03:26:36;;;;;;;12.13;11.23;;;11.90;84.80;;;;;;5014017;28;20103;-79
2022/11/30 03:29:01;;;;;;;12.07;11.10;;;11.90;84.80;;;;;;4995686;28;20030;-80
2022/11/30 03:31:27;;;;;;;12.15;11.25;;;11.80;84.80;;;;;;5002866;28;20593;-78
2022/11/30 03:33:52;;;;;;;12.07;11.15;;;11.80;84.80;;;;;;4996456;28;20149;-79
2022/11/30 03:36:18;;;;;;;12.38;11.45;;;11.90;84.90;;;;;;4982214;28;20065;-80
2022/11/30 03:38:43;;;;;;;13.20;12.23;;;11.80;84.80;;;;;;4998443;28;20526;-80
2022/11/30 03:41:17;;;;;;;12.43;11.45;;;11.90;84.90;;;;;;5011618;28;20104;-80
2022/11/30 03:43:45;;;;;;;12.20;11.30;;;11.90;84.90;;;;;;4989079;28;20021;-78
2022/11/30 03:46:11;;;;;;;11.32;10.43;;;11.90;84.90;;;;;;4995526;28;20069;-78
2022/11/30 03:48:36;;;;;;;12.02;11.13;;;11.90;84.90;;;;;;4988626;28;20026;-80
2022/11/30 03:51:03;;;;;;;13.13;12.13;;;11.90;84.90;;;;;;4977088;28;20061;-80
2022/11/30 03:53:30;;;;;;;12.38;11.48;;;11.90;85.40;;;;;;4984835;28;20742;-78
2022/11/30 03:55:58;;;;;;;12.40;11.50;;;11.80;84.80;;;;;;4988790;28;20041;-80
2022/11/30 03:58:24;;;;;;;12.38;11.40;;;11.90;84.90;;;;;;5011488;28;20433;-80
2022/11/30 04:00:58;;;;;;;11.57;10.68;;;11.80;84.80;;;;;;5010067;28;20030;-79
2022/11/30 04:03:24;;;;;;;11.73;10.82;;;11.80;84.80;;;;;;5012739;28;20038;-78
2022/11/30 04:05:49;;;;;;;12.02;11.13;;;11.80;84.80;;;;;;4991130;28;20030;-81
2022/11/30 04:08:15;;;;;;;12.38;11.38;;;11.80;84.80;;;;;;4995413;28;20113;-78
2022/11/30 04:10:40;;;;;;;12.60;11.70;;;11.80;84.80;;;;;;4992072;28;20096;-79
2022/11/30 04:13:06;;;;;;;12.48;11.48;;;11.80;84.70;;;;;;4994339;28;20457;-80
2022/11/30 04:15:31;;;;;;;12.40;11.50;;;11.90;84.80;;;;;;4996525;28;20019;-79
2022/11/30 04:17:57;;;;;;;12.18;11.27;;;11.90;84.80;;;;;;5012035;28;20026;-77
2022/11/30 04:20:22;;;;;;;11.93;11.02;;;11.80;84.70;;;;;;5010799;28;20383;-77
2022/11/30 04:22:48;;;;;;;11.52;10.68;;;11.80;84.80;;;;;;4976508;28;1041335;-77
2022/11/30 04:25:13;;;;;;;11.98;11.07;;;11.80;84.80;;;;;;4994746;28;20026;-79
2022/11/30 04:27:39;;;;;;;12.25;11.35;;;11.90;84.80;;;;;;4995634;28;20422;-79
2022/11/30 04:30:05;;;;;;;12.20;11.30;;;11.80;84.80;;;;;;5007026;28;20041;-79
2022/11/30 04:32:31;;;;;;;11.23;10.32;;;11.90;84.80;;;;;;4992930;28;20089;-80
2022/11/30 04:34:56;;;;;;;11.68;10.77;;;11.90;84.70;;;;;;4995214;28;20483;-79
2022/11/30 04:37:22;;;;;;;12.02;11.13;;;11.90;84.70;;;;;;4990256;28;20049;-80
2022/11/30 04:39:47;;;;;;;11.50;10.70;;;11.90;85.20;;;;;;4994158;28;20026;-80
2022/11/30 04:42:13;;;;;;;11.65;10.85;;;11.90;84.50;;;;;;5002682;28;20037;-79
2022/11/30 04:44:39;;;;;;;11.75;10.88;;;11.90;84.40;;;;;;5001927;28;20040;-79
2022/11/30 04:47:04;;;;;;;11.50;10.63;;;12.00;84.30;;;;;;5008922;28;20033;-79
2022/11/30 04:49:30;;;;;;;11.43;10.55;;;12.00;84.20;;;;;;4984327;28;20476;-79
2022/11/30 04:51:55;;;;;;;11.07;10.18;;;12.00;84.20;;;;;;4995985;28;20034;-78
2022/11/30 04:54:21;;;;;;;12.60;11.70;;;12.00;84.10;;;;;;4997154;28;20033;-79
2022/11/30 04:56:46;;;;;;;11.95;11.05;;;12.00;84.20;;;;;;4983145;28;20046;-77
2022/11/30 04:59:12;;;;;;;11.38;10.48;;;12.00;84.20;;;;;;4992772;28;20406;-80
2022/11/30 05:01:37;;;;;;;12.05;11.15;;;11.90;84.30;;;;;;4998073;28;20514;-78
2022/11/30 05:04:03;;;;;;;11.82;10.93;;;11.90;84.40;;;;;;4975829;28;20022;-81
2022/11/30 05:06:29;;;;;;;11.68;10.80;;;11.90;84.40;;;;;;5013849;28;20115;-80
2022/11/30 05:08:54;;;;;;;11.65;10.68;;;11.90;84.50;;;;;;4991933;28;20030;-80
2022/11/30 05:11:20;;;;;;;11.05;10.25;;;11.90;84.60;;;;;;4984015;28;20018;-80
2022/11/30 05:13:45;;;;;;;11.00;10.20;;;11.90;84.60;;;;;;5014540;28;20021;-78
2022/11/30 05:16:11;;;;;;;11.80;10.98;;;11.90;84.60;;;;;;5012372;28;20033;-76
2022/11/30 05:18:36;;;;;;;11.45;10.55;;;11.90;84.70;;;;;;4990943;28;20550;-74
2022/11/30 05:21:02;;;;;;;11.38;10.55;;;11.90;84.70;;;;;;4981756;28;20030;-73
2022/11/30 05:23:28;;;;;;;11.38;10.48;;;11.90;84.80;;;;;;4990057;28;20415;-74
2022/11/30 05:25:53;;;;;;;11.20;10.30;;;11.90;84.80;;;;;;4991699;28;20030;-74
2022/11/30 05:28:19;;;;;;;11.98;11.00;;;11.90;84.80;;;;;;4999019;28;20065;-79
2022/11/30 05:30:44;;;;;;;11.30;10.40;;;11.80;84.80;;;;;;4979201;28;20026;-76
2022/11/30 05:33:10;;;;;;;11.75;10.85;;;11.90;84.90;;;;;;4994576;28;20022;-76
2022/11/30 05:35:35;;;;;;;11.75;10.85;;;11.90;84.80;;;;;;4994224;28;20126;-74
2022/11/30 05:38:02;;;;;;;11.45;10.55;;;11.90;84.80;;;;;;4981658;28;20109;-77
2022/11/30 05:40:29;;;;;;;11.30;10.45;;;11.90;84.90;;;;;;4997360;28;20421;-79
2022/11/30 05:42:56;;;;;;;11.35;10.52;;;11.80;84.80;;;;;;4982966;28;20026;-80
2022/11/30 05:45:21;;;;;;;12.20;11.30;;;11.90;85.00;;;;;;5015906;28;20032;-81
2022/11/30 05:47:47;;;;;;;11.75;10.90;;;11.80;84.90;;;;;;4995223;28;20034;-78
2022/11/30 05:50:13;;;;;;;11.20;10.40;;;11.80;84.80;;;;;;4994189;28;20018;-83
2022/11/30 05:52:38;;;;;;;12.50;11.60;;;11.80;84.90;;;;;;5012153;28;20371;-78
2022/11/30 05:55:04;;;;;;;11.75;10.90;;;11.80;84.80;;;;;;4978783;28;20080;-78
2022/11/30 05:57:30;;;;;;;11.77;10.95;;;11.80;84.90;;;;;;5000394;28;20069;-76
2022/11/30 05:59:55;;;;;;;11.55;10.65;;;11.80;84.80;;;;;;4993695;28;20072;-73
2022/11/30 06:02:21;;;;;;;12.25;11.35;;;11.90;84.80;;;;;;4996926;28;20029;-75
2022/11/30 06:04:46;;;;;;;11.77;10.88;;;11.80;84.80;;;;;;4991842;28;20100;-74
2022/11/30 06:07:12;;;;;;;11.57;10.75;;;11.80;84.80;;;;;;4977583;28;20557;-80
2022/11/30 06:09:38;;;;;;;11.32;10.45;;;11.80;84.90;;;;;;5000000;28;20037;-78
2022/11/30 06:12:04;;;;;;;11.75;10.95;;;11.90;84.90;;;;;;4996719;28;20410;-78
2022/11/30 06:14:30;;;;;;;11.10;10.20;;;11.90;84.90;;;;;;4994180;28;20058;-74
2022/11/30 06:16:55;;;;;;;11.95;11.05;;;11.80;84.90;;;;;;4987123;28;20066;-76
2022/11/30 06:19:21;;;;;;;12.05;11.15;;;11.80;84.80;;;;;;4994326;28;20461;-77
2022/11/30 06:21:46;;;;;;;11.38;10.48;;;11.80;84.80;;;;;;5001209;28;20446;-74
2022/11/30 06:24:12;;;;;;;12.27;11.38;;;11.80;84.90;;;;;;4976541;28;20057;-79
2022/11/30 06:26:38;;;;;;;11.73;10.90;;;11.80;84.80;;;;;;5000762;28;20026;-78
2022/11/30 06:29:03;;;;;;;10.90;10.10;;;11.80;84.80;;;;;;5000467;28;20161;-79
2022/11/30 06:31:30;;;;;;;12.70;11.73;;;11.80;84.80;;;;;;4974622;28;20479;-79
2022/11/30 06:33:56;;;;;;;10.77;9.80;;;11.80;84.80;;;;;;4993573;28;20035;-79
2022/11/30 06:36:23;;;;;;;11.82;10.82;;;11.80;84.90;;;;;;4991485;28;20398;-77
2022/11/30 06:38:48;;;;;;;11.30;10.50;;;11.90;84.80;;;;;;4973883;28;20034;-77
2022/11/30 06:41:14;;;;;;;11.50;10.70;;;11.90;84.80;;;;;;4995439;28;20040;-77
2022/11/30 06:43:40;;;;;;;11.23;10.43;;;11.90;84.60;;;;;;4998523;28;20514;-76
2022/11/30 06:46:06;;;;;;;11.15;10.35;;;11.90;84.50;;;;;;4996075;28;20019;-78
2022/11/30 06:48:32;;;;;;;12.15;11.25;;;11.90;84.40;;;;;;4978823;28;20465;-80
2022/11/30 06:50:59;;;;;;;11.38;10.52;;;11.90;84.30;;;;;;4993717;28;20022;-79
2022/11/30 06:53:25;;;;;;;11.43;10.63;;;12.00;84.30;;;;;;5014490;28;20536;-82
2022/11/30 06:55:50;;;;;;;10.95;10.15;;;12.00;84.20;;;;;;4996800;28;20021;-79
2022/11/30 06:58:16;;;;;;;11.68;10.82;;;12.00;84.10;;;;;;5018719;28;20029;-79
2022/11/30 07:00:42;;;;;;;11.68;10.60;;;12.00;84.10;;;;;;5013667;28;20064;-78
2022/11/30 07:03:10;;;;;;;11.45;10.65;;;12.00;84.20;;;;;;5015786;28;20413;-79
2022/11/30 07:05:42;;;;;;;11.10;10.30;;;12.00;84.30;;;;;;5015188;28;20104;-78
2022/11/30 07:08:08;;;;;;;10.63;9.82;;;11.90;84.30;;;;;;5014714;28;20030;-79
2022/11/30 07:10:38;;;;;;;11.35;10.45;;;11.90;84.40;;;;;;5019017;28;20459;-79
2022/11/30 07:13:04;;;;;;;12.13;11.00;;;11.90;84.50;;;;;;5018320;28;20101;-78
2022/11/30 07:15:29;;;;;;;11.10;10.30;;;11.90;84.60;;;;;;5016660;28;20053;-79
2022/11/30 07:17:55;;;;;;;11.43;10.50;;;11.90;84.60;;;;;;5015827;28;20109;-78
2022/11/30 07:20:20;;;;;;;10.77;9.98;;;11.90;84.60;;;;;;5017686;28;20022;-79
2022/11/30 07:22:46;;;;;;;10.65;9.85;;;11.90;84.70;;;;;;5018805;28;20559;-78
2022/11/30 07:27:55;;;;;;;11.10;10.30;;;11.90;84.80;;;;;;5016371;28;20118;-78
2022/11/30 07:30:21;;;;;;;11.85;11.00;;;11.90;84.80;;;;;;4998418;28;20085;-78
2022/11/30 07:32:46;;;;;;;11.50;10.70;;;11.80;84.80;;;;;;4997143;28;20024;-76
2022/11/30 07:35:12;;;;;;;11.43;10.60;;;11.80;84.90;;;;;;5018577;28;20037;-78
2022/11/30 07:37:38;;;;;;;10.93;10.13;;;11.90;84.90;;;;;;5018044;28;20453;-79
2022/11/30 07:40:04;;;;;;;11.43;10.52;;;11.80;84.90;;;;;;4999126;28;20022;-78
2022/11/30 07:42:30;;;;;;;11.50;10.60;;;11.80;84.90;;;;;;5017532;28;20018;-78
2022/11/30 07:44:55;;;;;;;10.70;9.90;;;11.80;84.90;;;;;;5016367;28;20018;-78
2022/11/30 07:47:21;;;;;;;11.25;10.45;;;11.90;84.90;;;;;;4998253;28;20109;-79
2022/11/30 07:49:46;;;;;;;10.55;9.75;;;11.80;84.90;;;;;;5016754;28;20320;-78
2022/11/30 07:52:12;;;;;;;11.65;10.85;;;11.80;84.90;;;;;;4998552;28;20018;-78
2022/11/30 07:54:37;;;;;;;11.48;10.57;;;11.80;84.90;;;;;;5017318;28;20053;-80
2022/11/30 07:57:03;;;;;;;11.65;10.82;;;11.80;84.90;;;;;;4999120;28;20025;-78
2022/11/30 07:59:29;;;;;;;11.50;10.70;;;11.80;84.90;;;;;;5014067;28;20049;-78
2022/11/30 08:01:54;;;;;;;11.25;10.45;;;11.80;84.90;;;;;;5016378;28;20113;-78
2022/11/30 08:04:20;;;;;;;10.98;10.18;;;11.90;85.00;;;;;;5017386;28;20075;-78
2022/11/30 08:06:45;;;;;;;11.23;10.43;;;11.80;84.90;;;;;;4999333;28;20097;-78
2022/11/30 08:09:11;;;;;;;11.10;10.30;;;11.80;84.90;;;;;;5015297;28;20030;-78
2022/11/30 08:11:37;;;;;;;11.13;10.32;;;11.80;84.90;;;;;;5015208;28;20033;-78
2022/11/30 08:14:03;;;;;;;11.05;10.25;;;11.80;84.90;;;;;;5015094;28;20498;-78
2022/11/30 08:16:33;;;;;;;11.38;10.57;;;11.80;84.90;;;;;;4998478;28;20033;-78
2022/11/30 08:18:59;;;;;;;11.35;10.55;;;11.80;84.90;;;;;;5016342;28;20044;-78
2022/11/30 08:21:24;;;;;;;11.02;10.27;;;11.90;85.00;;;;;;4999245;28;20026;-78
2022/11/30 08:23:55;;;;;;;10.73;10.00;;;11.80;84.90;;;;;;5016806;28;20413;-79
2022/11/30 08:26:32;;;;;;;10.82;9.93;;;11.80;84.90;;;;;;4999137;28;20032;-78
2022/11/30 08:28:59;;;;;;;10.70;9.90;;;11.80;84.80;;;;;;5016046;28;20029;-78
2022/11/30 08:31:31;;;;;;;11.23;10.43;;;11.80;84.90;;;;;;4998044;28;20121;-78
2022/11/30 08:33:58;;;;;;;10.48;9.73;;;11.80;84.90;;;;;;4997922;28;20056;-79
2022/11/30 08:36:26;;;;;;;10.45;9.65;;;11.80;84.90;;;;;;4998788;28;20049;-78
2022/11/30 08:38:52;;;;;;;11.43;10.63;;;11.80;84.90;;;;;;5016421;28;20022;-79
2022/11/30 08:41:20;;;;;;;11.27;10.48;;;12.00;85.00;;;;;;4998922;28;20062;-79
2022/11/30 08:43:47;;;;;;;10.70;9.93;;;11.90;84.90;;;;;;5016778;28;20036;-79
2022/11/30 08:46:15;;;;;;;10.77;9.98;;;11.90;84.80;;;;;;4998739;28;20045;-78
2022/11/30 08:48:40;;;;;;;11.57;10.68;;;11.90;84.70;;;;;;5015981;28;20037;-78
2022/11/30 08:51:09;;;;;;;10.60;9.85;;;11.90;84.60;;;;;;5016321;28;20022;-79
2022/11/30 08:53:35;;;;;;;11.43;10.63;;;11.90;84.50;;;;;;5023020;28;20446;-80
2022/11/30 08:56:03;;;;;;;11.52;10.73;;;12.00;84.50;;;;;;5021286;28;20053;-79
2022/11/30 08:58:31;;;;;;;10.55;9.82;;;12.00;84.40;;;;;;5004169;28;20030;-79
2022/11/30 09:01:12;;;;;;;10.32;9.63;;;12.00;84.20;;;;;;5001732;28;20029;-79
2022/11/30 09:03:38;;;;;;;10.68;9.88;;;12.00;84.20;;;;;;5020564;28;20022;-78
2022/11/30 09:06:16;;;;;;;11.32;10.52;;;12.00;84.20;;;;;;5003121;28;20037;-78
2022/11/30 09:08:43;;;;;;;11.35;10.50;;;12.00;84.30;;;;;;5002907;28;20101;-79
2022/11/30 09:11:14;;;;;;;11.23;10.43;;;12.00;84.40;;;;;;5021345;28;20471;-79
2022/11/30 09:13:41;;;;;;;11.10;10.30;;;11.90;84.40;;;;;;5005156;28;20037;-79
2022/11/30 09:16:07;;;;;;;10.57;9.77;;;11.90;84.60;;;;;;5023080;28;20053;-80
2022/11/30 09:18:33;;;;;;;11.13;10.32;;;11.90;84.60;;;;;;4998073;28;20029;-79
2022/11/30 09:21:07;;;;;;;10.85;10.05;;;11.90;84.70;;;;;;5002805;28;20487;-79
2022/11/30 09:23:33;;;;;;;10.57;9.75;;;11.90;84.70;;;;;;5021639;28;20036;-77
2022/11/30 09:26:01;;;;;;;11.07;10.27;;;11.80;84.70;;;;;;5020980;28;20029;-79
2022/11/30 09:28:31;;;;;;;10.70;9.90;;;11.90;84.80;;;;;;5020493;28;20025;-80
2022/11/30 09:31:01;;;;;;;11.10;10.30;;;11.90;84.80;;;;;;4999748;28;20032;-78
2022/11/30 09:33:27;;;;;;;11.13;10.32;;;11.90;84.80;;;;;;4995479;28;20033;-78
2022/11/30 09:35:57;;;;;;;10.50;9.70;;;11.90;84.90;;;;;;5000803;28;20026;-80
2022/11/30 09:38:23;;;;;;;10.70;9.93;;;11.80;84.80;;;;;;5001809;28;20032;-79
2022/11/30 09:40:57;;;;;;;11.02;10.23;;;11.90;84.90;;;;;;5000622;28;20129;-77
2022/11/30 09:43:41;;;;;;;10.23;9.48;;;11.80;84.90;;;;;;5012486;28;20057;-78
2022/11/30 09:46:09;;;;;;;11.13;10.32;;;11.80;84.90;;;;;;4996425;28;20589;-78
2022/11/30 09:48:40;;;;;;;12.43;11.52;;;11.90;85.00;;;;;;5016059;28;20132;-81
2022/11/30 09:51:19;;;;;;;10.73;9.98;;;11.90;84.90;;;;;;5020685;28;20033;-79
2022/11/30 09:53:51;;;;;;;11.00;10.20;;;11.90;85.00;;;;;;5005267;28;20029;-80
2022/11/30 09:56:24;;;;;;;11.65;10.85;;;11.80;84.90;;;;;;5017776;28;20033;-80
2022/11/30 09:58:54;;;;;;;10.52;9.73;;;11.90;85.00;;;;;;5003319;28;20049;-81
2022/11/30 10:01:21;;;;;;;11.38;10.52;;;11.80;84.90;;;;;;5020274;28;20029;-78
2022/11/30 10:03:47;;;;;;;11.40;10.60;;;11.80;85.00;;;;;;5020770;28;20037;-80
2022/11/30 10:06:24;;;;;;;11.38;10.57;;;11.80;84.90;;;;;;5020111;28;20037;-79
2022/11/30 10:08:49;;;;;;;10.60;9.80;;;11.80;84.90;;;;;;5020115;28;20057;-78
2022/11/30 10:11:21;;;;;;;11.27;10.48;;;11.80;85.00;;;;;;5019817;28;20026;-80
2022/11/30 10:13:52;;;;;;;10.45;9.65;;;11.80;84.90;;;;;;5018272;28;20022;-80
2022/11/30 10:16:30;;;;;;;10.73;9.95;;;11.80;84.90;;;;;;5022580;28;20022;-79
2022/11/30 10:19:26;;;;;;;11.00;10.20;;;11.80;84.90;;;;;;5005654;28;20034;-80
2022/11/30 10:22:18;;;;;;;10.05;9.25;;;11.80;84.90;;;;;;5004607;28;20120;-78
2022/11/30 10:25:03;;;;;;;11.57;10.68;;;11.80;84.90;;;;;;5023106;28;20041;-80
2022/11/30 10:27:53;;;;;;;11.02;10.23;;;11.90;85.00;;;;;;5004668;28;20072;-79
2022/11/30 10:30:21;;;;;;;11.00;10.20;;;11.80;84.90;;;;;;5022544;28;20109;-78
2022/11/30 10:32:55;;;;;;;11.75;10.95;;;11.80;84.90;;;;;;5003658;28;20022;-79
2022/11/30 10:35:28;;;;;;;11.35;10.55;;;11.80;84.90;;;;;;5004302;28;20026;-78
2022/11/30 10:37:56;;;;;;;11.45;10.55;;;11.80;84.90;;;;;;5003959;28;20437;-78
2022/11/30 10:40:42;;;;;;;11.50;10.70;;;11.80;84.90;;;;;;5003755;28;20050;-78
2022/11/30 10:43:18;;;;;;;10.95;10.15;;;11.80;84.90;;;;;;5021198;28;20030;-78
2022/11/30 10:45:47;;;;;;;10.95;10.15;;;11.80;84.90;;;;;;5016446;28;20033;-78
2022/11/30 10:48:41;;;;;;;11.18;10.38;;;11.80;84.90;;;;;;5002726;28;20033;-80
2022/11/30 10:51:09;;;;;;;10.48;9.70;;;11.80;84.90;;;;;;5020756;28;20022;-78
2022/11/30 10:53:36;;;;;;;10.57;9.75;;;11.90;84.90;;;;;;5020756;28;20022;-79
2022/11/30 10:56:11;;;;;;;11.05;10.25;;;11.90;84.80;;;;;;5000112;28;20459;-80
2022/11/30 10:58:40;;;;;;;11.05;10.15;;;11.90;84.70;;;;;;5017384;28;20153;-78
2022/11/30 11:01:28;;;;;;;11.80;10.95;;;11.90;84.50;;;;;;5017594;28;20105;-78
2022/11/30 11:04:07;;;;;;;11.15;10.35;;;11.90;84.40;;;;;;5019023;28;20026;-78
2022/11/30 11:06:32;;;;;;;10.38;9.57;;;11.90;84.30;;;;;;5020162;28;20077;-79
2022/11/30 11:08:58;;;;;;;10.65;9.85;;;12.00;84.30;;;;;;5015747;28;20509;-80
2022/11/30 11:11:34;;;;;;;10.77;9.98;;;12.00;84.20;;;;;;5016971;28;20041;-78
2022/11/30 11:14:20;;;;;;;10.80;10.00;;;12.00;84.20;;;;;;4997584;28;20025;-78
2022/11/30 11:16:56;;;;;;;11.00;10.20;;;12.00;84.50;;;;;;4998283;28;20508;-78
2022/11/30 11:19:40;;;;;;;10.80;10.00;;;11.90;84.40;;;;;;4999889;28;20125;-78
2022/11/30 11:22:19;;;;;;;11.20;10.40;;;11.90;84.50;;;;;;5000386;28;20059;-79
2022/11/30 11:24:46;;;;;;;11.18;10.38;;;11.90;84.60;;;;;;5019410;28;20041;-78
2022/11/30 11:27:25;;;;;;;11.23;10.43;;;11.90;84.70;;;;;;5000013;28;20410;-79
2022/11/30 11:30:06;;;;;;;11.20;10.40;;;11.90;84.70;;;;;;4998594;28;20025;-78
2022/11/30 11:32:32;;;;;;;11.48;10.57;;;11.90;84.70;;;;;;5000280;28;20486;-78
2022/11/30 11:34:59;;;;;;;11.77;10.88;;;11.80;84.70;;;;;;5018559;28;20030;-78
2022/11/30 11:37:29;;;;;;;11.82;10.95;;;11.90;84.80;;;;;;5001046;28;20028;-80
2022/11/30 11:40:13;;;;;;;11.40;10.57;;;11.90;84.80;;;;;;4999296;28;20496;-79
2022/11/30 11:42:44;;;;;;;11.38;10.57;;;11.90;84.80;;;;;;4997361;28;20277;-79
2022/11/30 11:45:17;;;;;;;11.80;10.98;;;11.80;84.80;;;;;;4999355;28;20025;-79
2022/11/30 11:47:44;;;;;;;11.60;10.70;;;11.80;84.90;;;;;;5017250;28;20038;-78
2022/11/30 11:50:55;;;;;;;11.63;10.73;;;11.70;84.80;;;;;;4998950;28;20045;-78
2022/11/30 11:53:32;;;;;;;11.32;10.52;;;11.80;84.80;;;;;;4970800;28;20030;-80
2022/11/30 11:56:05;;;;;;;10.77;9.98;;;11.80;84.90;;;;;;5006310;28;20022;-79
2022/11/30 11:58:50;;;;;;;12.10;11.20;;;11.80;84.90;;;;;;5005454;28;20113;-79
2022/11/30 12:01:31;;;;;;;11.18;10.38;;;11.80;84.90;;;;;;5021462;28;20037;-80
2022/11/30 12:04:02;;;;;;;10.93;10.13;;;11.80;84.80;;;;;;5003763;28;20477;-80
2022/11/30 12:06:29;;;;;;;12.15;11.25;;;11.80;84.90;;;;;;5019879;28;20029;-80
2022/11/30 12:09:12;;;;;;;12.15;11.25;;;11.80;84.90;;;;;;4995670;28;20034;-79
2022/11/30 12:11:40;;;;;;;11.85;10.95;;;11.80;84.90;;;;;;5003308;28;20026;-80
2022/11/30 12:14:10;;;;;;;12.13;11.13;;;11.90;85.00;;;;;;5002447;28;20030;-80
2022/11/30 12:17:05;;;;;;;12.32;11.43;;;11.80;84.90;;;;;;5001436;28;20018;-80
2022/11/30 12:20:05;;;;;;;11.82;10.93;;;11.90;84.90;;;;;;5003203;28;20034;-80
2022/11/30 12:22:50;;;;;;;11.98;11.07;;;11.80;84.80;;;;;;5003313;28;20029;-79
2022/11/30 12:25:36;;;;;;;12.10;11.20;;;11.80;85.30;;;;;;5022359;28;20482;-79
2022/11/30 12:28:54;;;;;;;11.45;10.55;;;11.90;84.90;;;;;;5021597;28;20026;-80
2022/11/30 12:31:23;;;;;;;11.57;10.68;;;11.80;84.80;;;;;;4940356;29;20075;-80
2022/11/30 12:33:48;;;;;;;12.85;11.85;;;11.90;84.90;;;;;;5005930;28;20509;-78
2022/11/30 12:36:23;;;;;;;12.05;11.15;;;11.80;84.80;;;;;;4995559;28;20022;-78
2022/11/30 12:39:14;;;;;;;12.05;11.15;;;11.80;84.90;;;;;;5018545;28;20548;-79
2022/11/30 12:42:03;;;;;;;12.30;11.35;;;11.80;84.80;;;;;;5002266;28;20025;-79